sensor_id;sensor_type;location;lat;lon;timestamp;P1;durP1;ratioP1;P2;durP2;ratioP2
65658;SDS011;60181;53.258;6.932;2023-03-11T00:01:21;8.00;;;1.60;;
65658;SDS011;60181;53.258;6.932;2023-03-11T00:05:25;8.00;;;1.60;;
65658;SDS011;60181;53.258;6.932;2023-03-11T00:09:28;12.70;;;1.70;;
65658;SDS011;60181;53.258;6.932;2023-03-11T00:13:32;12.70;;;1.70;;
65658;SDS011;60181;53.258;6.932;2023-03-11T00:17:36;7.70;;;1.50;;
65658;SDS011;60181;53.258;6.932;2023-03-11T00:21:40;7.70;;;1.50;;
65658;SDS011;60181;53.258;6.932;2023-03-11T00:25:45;7.70;;;1.50;;
65658;SDS011;60181;53.258;6.932;2023-03-11T00:29:48;9.80;;;1.50;;
65658;SDS011;60181;53.258;6.932;2023-03-11T00:33:53;9.80;;;1.50;;
65658;SDS011;60181;53.258;6.932;2023-03-11T00:37:57;7.40;;;1.10;;
65658;SDS011;60181;53.258;6.932;2023-03-11T00:42:00;7.40;;;1.10;;
65658;SDS011;60181;53.258;6.932;2023-03-11T00:46:04;7.40;;;1.10;;
65658;SDS011;60181;53.258;6.932;2023-03-11T00:50:09;7.00;;;1.10;;
65658;SDS011;60181;53.258;6.932;2023-03-11T00:54:12;7.00;;;1.10;;
65658;SDS011;60181;53.258;6.932;2023-03-11T00:58:16;5.30;;;1.00;;
65658;SDS011;60181;53.258;6.932;2023-03-11T01:02:21;5.30;;;1.00;;
65658;SDS011;60181;53.258;6.932;2023-03-11T01:06:24;5.50;;;1.00;;
65658;SDS011;60181;53.258;6.932;2023-03-11T01:10:29;5.50;;;1.00;;
65658;SDS011;60181;53.258;6.932;2023-03-11T01:14:32;5.50;;;1.00;;
65658;SDS011;60181;53.258;6.932;2023-03-11T01:18:36;5.20;;;0.90;;
65658;SDS011;60181;53.258;6.932;2023-03-11T01:22:40;5.20;;;0.90;;
65658;SDS011;60181;53.258;6.932;2023-03-11T01:26:44;3.80;;;0.80;;
65658;SDS011;60181;53.258;6.932;2023-03-11T01:30:48;3.80;;;0.80;;
65658;SDS011;60181;53.258;6.932;2023-03-11T01:34:52;3.80;;;0.80;;
65658;SDS011;60181;53.258;6.932;2023-03-11T01:38:56;5.10;;;0.90;;
65658;SDS011;60181;53.258;6.932;2023-03-11T01:43:01;5.10;;;0.90;;
65658;SDS011;60181;53.258;6.932;2023-03-11T01:51:08;6.50;;;0.90;;
65658;SDS011;60181;53.258;6.932;2023-03-11T01:55:13;6.50;;;0.90;;
65658;SDS011;60181;53.258;6.932;2023-03-11T01:59:18;4.90;;;0.80;;
65658;SDS011;60181;53.258;6.932;2023-03-11T02:03:23;4.90;;;0.80;;
65658;SDS011;60181;53.258;6.932;2023-03-11T02:07:24;4.80;;;0.80;;
65658;SDS011;60181;53.258;6.932;2023-03-11T02:11:28;4.80;;;0.80;;
65658;SDS011;60181;53.258;6.932;2023-03-11T02:15:32;4.80;;;0.80;;
65658;SDS011;60181;53.258;6.932;2023-03-11T02:23:49;5.00;;;0.90;;
65658;SDS011;60181;53.258;6.932;2023-03-11T02:27:46;2.00;;;0.60;;
65658;SDS011;60181;53.258;6.932;2023-03-11T02:31:48;2.00;;;0.60;;
65658;SDS011;60181;53.258;6.932;2023-03-11T02:35:52;2.00;;;0.60;;
65658;SDS011;60181;53.258;6.932;2023-03-11T02:40:27;2.80;;;0.80;;
65658;SDS011;60181;53.258;6.932;2023-03-11T02:44:00;2.80;;;0.80;;
65658;SDS011;60181;53.258;6.932;2023-03-11T02:48:04;3.50;;;0.70;;
65658;SDS011;60181;53.258;6.932;2023-03-11T02:52:08;3.50;;;0.70;;
65658;SDS011;60181;53.258;6.932;2023-03-11T02:56:12;3.50;;;0.70;;
65658;SDS011;60181;53.258;6.932;2023-03-11T03:00:17;5.30;;;0.70;;
65658;SDS011;60181;53.258;6.932;2023-03-11T03:04:20;5.30;;;0.70;;
65658;SDS011;60181;53.258;6.932;2023-03-11T03:08:24;4.70;;;0.70;;
65658;SDS011;60181;53.258;6.932;2023-03-11T03:12:28;4.70;;;0.70;;
65658;SDS011;60181;53.258;6.932;2023-03-11T03:16:32;6.50;;;1.00;;
65658;SDS011;60181;53.258;6.932;2023-03-11T03:20:36;6.50;;;1.00;;
65658;SDS011;60181;53.258;6.932;2023-03-11T03:24:40;6.50;;;1.00;;
65658;SDS011;60181;53.258;6.932;2023-03-11T03:28:44;6.70;;;0.80;;
65658;SDS011;60181;53.258;6.932;2023-03-11T03:32:48;6.70;;;0.80;;
65658;SDS011;60181;53.258;6.932;2023-03-11T03:36:52;4.40;;;0.70;;
65658;SDS011;60181;53.258;6.932;2023-03-11T03:40:56;4.40;;;0.70;;
65658;SDS011;60181;53.258;6.932;2023-03-11T03:45:00;4.40;;;0.70;;
65658;SDS011;60181;53.258;6.932;2023-03-11T03:49:04;2.00;;;0.60;;
65658;SDS011;60181;53.258;6.932;2023-03-11T03:53:08;2.00;;;0.60;;
65658;SDS011;60181;53.258;6.932;2023-03-11T03:57:12;3.00;;;0.70;;
65658;SDS011;60181;53.258;6.932;2023-03-11T04:01:16;3.00;;;0.70;;
65658;SDS011;60181;53.258;6.932;2023-03-11T04:05:20;3.00;;;0.70;;
65658;SDS011;60181;53.258;6.932;2023-03-11T04:09:24;4.70;;;0.90;;
65658;SDS011;60181;53.258;6.932;2023-03-11T04:13:28;4.70;;;0.90;;
65658;SDS011;60181;53.258;6.932;2023-03-11T04:17:32;4.40;;;0.80;;
65658;SDS011;60181;53.258;6.932;2023-03-11T04:21:36;4.40;;;0.80;;
65658;SDS011;60181;53.258;6.932;2023-03-11T04:25:40;4.40;;;0.80;;
65658;SDS011;60181;53.258;6.932;2023-03-11T04:29:44;4.70;;;1.00;;
65658;SDS011;60181;53.258;6.932;2023-03-11T04:33:48;4.70;;;1.00;;
65658;SDS011;60181;53.258;6.932;2023-03-11T04:37:52;6.40;;;0.90;;
65658;SDS011;60181;53.258;6.932;2023-03-11T04:41:56;6.40;;;0.90;;
65658;SDS011;60181;53.258;6.932;2023-03-11T04:46:00;6.40;;;0.90;;
65658;SDS011;60181;53.258;6.932;2023-03-11T04:50:04;6.20;;;0.70;;
65658;SDS011;60181;53.258;6.932;2023-03-11T04:54:08;6.20;;;0.70;;
65658;SDS011;60181;53.258;6.932;2023-03-11T04:58:12;5.40;;;1.00;;
65658;SDS011;60181;53.258;6.932;2023-03-11T05:02:16;5.40;;;1.00;;
65658;SDS011;60181;53.258;6.932;2023-03-11T05:06:20;4.80;;;0.90;;
65658;SDS011;60181;53.258;6.932;2023-03-11T05:10:24;4.80;;;0.90;;
65658;SDS011;60181;53.258;6.932;2023-03-11T05:14:28;4.80;;;0.90;;
65658;SDS011;60181;53.258;6.932;2023-03-11T05:18:32;5.10;;;1.00;;
65658;SDS011;60181;53.258;6.932;2023-03-11T05:22:36;5.10;;;1.00;;
65658;SDS011;60181;53.258;6.932;2023-03-11T05:26:40;7.80;;;1.00;;
65658;SDS011;60181;53.258;6.932;2023-03-11T05:30:44;7.80;;;1.00;;
65658;SDS011;60181;53.258;6.932;2023-03-11T05:34:49;7.80;;;1.00;;
65658;SDS011;60181;53.258;6.932;2023-03-11T05:38:52;4.40;;;0.80;;
65658;SDS011;60181;53.258;6.932;2023-03-11T05:42:56;4.40;;;0.80;;
65658;SDS011;60181;53.258;6.932;2023-03-11T05:47:00;4.70;;;0.80;;
65658;SDS011;60181;53.258;6.932;2023-03-11T05:51:08;4.70;;;0.80;;
65658;SDS011;60181;53.258;6.932;2023-03-11T05:55:08;4.70;;;0.80;;
65658;SDS011;60181;53.258;6.932;2023-03-11T05:59:12;1.80;;;0.60;;
65658;SDS011;60181;53.258;6.932;2023-03-11T06:03:16;1.80;;;0.60;;
65658;SDS011;60181;53.258;6.932;2023-03-11T06:07:20;4.30;;;0.70;;
65658;SDS011;60181;53.258;6.932;2023-03-11T06:11:24;4.30;;;0.70;;
65658;SDS011;60181;53.258;6.932;2023-03-11T06:15:28;4.30;;;0.70;;
65658;SDS011;60181;53.258;6.932;2023-03-11T06:19:32;3.60;;;0.70;;
65658;SDS011;60181;53.258;6.932;2023-03-11T06:23:36;3.60;;;0.70;;
65658;SDS011;60181;53.258;6.932;2023-03-11T06:27:40;2.60;;;0.60;;
65658;SDS011;60181;53.258;6.932;2023-03-11T06:31:44;2.60;;;0.60;;
65658;SDS011;60181;53.258;6.932;2023-03-11T06:35:55;2.60;;;0.60;;
65658;SDS011;60181;53.258;6.932;2023-03-11T06:39:52;2.40;;;0.70;;
65658;SDS011;60181;53.258;6.932;2023-03-11T06:43:56;2.40;;;0.70;;
65658;SDS011;60181;53.258;6.932;2023-03-11T06:48:00;2.20;;;0.60;;
65658;SDS011;60181;53.258;6.932;2023-03-11T06:52:04;2.20;;;0.60;;
65658;SDS011;60181;53.258;6.932;2023-03-11T06:56:09;2.20;;;0.60;;
65658;SDS011;60181;53.258;6.932;2023-03-11T07:00:12;3.20;;;0.60;;
65658;SDS011;60181;53.258;6.932;2023-03-11T07:04:16;3.20;;;0.60;;
65658;SDS011;60181;53.258;6.932;2023-03-11T07:08:20;1.70;;;0.70;;
65658;SDS011;60181;53.258;6.932;2023-03-11T07:12:24;1.70;;;0.70;;
65658;SDS011;60181;53.258;6.932;2023-03-11T07:16:28;3.00;;;0.80;;
65658;SDS011;60181;53.258;6.932;2023-03-11T07:20:32;3.00;;;0.80;;
65658;SDS011;60181;53.258;6.932;2023-03-11T07:24:36;3.00;;;0.80;;
65658;SDS011;60181;53.258;6.932;2023-03-11T07:28:40;3.20;;;0.80;;
65658;SDS011;60181;53.258;6.932;2023-03-11T07:32:44;3.20;;;0.80;;
65658;SDS011;60181;53.258;6.932;2023-03-11T07:36:48;2.30;;;1.10;;
65658;SDS011;60181;53.258;6.932;2023-03-11T07:40:58;2.30;;;1.10;;
65658;SDS011;60181;53.258;6.932;2023-03-11T07:44:56;2.30;;;1.10;;
65658;SDS011;60181;53.258;6.932;2023-03-11T07:49:00;2.90;;;1.20;;
65658;SDS011;60181;53.258;6.932;2023-03-11T07:53:04;2.90;;;1.20;;
65658;SDS011;60181;53.258;6.932;2023-03-11T07:57:08;4.50;;;1.50;;
65658;SDS011;60181;53.258;6.932;2023-03-11T08:01:15;4.50;;;1.50;;
65658;SDS011;60181;53.258;6.932;2023-03-11T08:05:16;4.50;;;1.50;;
65658;SDS011;60181;53.258;6.932;2023-03-11T08:09:20;5.30;;;1.60;;
65658;SDS011;60181;53.258;6.932;2023-03-11T08:13:24;5.30;;;1.60;;
65658;SDS011;60181;53.258;6.932;2023-03-11T08:17:28;9.90;;;2.60;;
65658;SDS011;60181;53.258;6.932;2023-03-11T08:21:32;9.90;;;2.60;;
65658;SDS011;60181;53.258;6.932;2023-03-11T08:25:39;9.90;;;2.60;;
65658;SDS011;60181;53.258;6.932;2023-03-11T08:29:40;18.00;;;2.90;;
65658;SDS011;60181;53.258;6.932;2023-03-11T08:33:44;18.00;;;2.90;;
65658;SDS011;60181;53.258;6.932;2023-03-11T08:37:48;13.40;;;3.00;;
65658;SDS011;60181;53.258;6.932;2023-03-11T08:41:52;13.40;;;3.00;;
65658;SDS011;60181;53.258;6.932;2023-03-11T08:45:56;13.40;;;3.00;;
65658;SDS011;60181;53.258;6.932;2023-03-11T08:50:00;10.80;;;2.90;;
65658;SDS011;60181;53.258;6.932;2023-03-11T08:54:04;10.80;;;2.90;;
65658;SDS011;60181;53.258;6.932;2023-03-11T08:58:08;8.80;;;2.80;;
65658;SDS011;60181;53.258;6.932;2023-03-11T09:02:12;8.80;;;2.80;;
65658;SDS011;60181;53.258;6.932;2023-03-11T09:06:16;8.80;;;2.80;;
65658;SDS011;60181;53.258;6.932;2023-03-11T09:10:20;10.30;;;2.90;;
65658;SDS011;60181;53.258;6.932;2023-03-11T09:14:24;10.30;;;2.90;;
65658;SDS011;60181;53.258;6.932;2023-03-11T09:18:28;8.40;;;2.90;;
65658;SDS011;60181;53.258;6.932;2023-03-11T09:22:32;8.40;;;2.90;;
65658;SDS011;60181;53.258;6.932;2023-03-11T09:26:36;8.40;;;2.60;;
65658;SDS011;60181;53.258;6.932;2023-03-11T09:30:40;8.40;;;2.60;;
65658;SDS011;60181;53.258;6.932;2023-03-11T09:34:58;8.40;;;2.60;;
65658;SDS011;60181;53.258;6.932;2023-03-11T09:38:50;7.30;;;2.80;;
65658;SDS011;60181;53.258;6.932;2023-03-11T09:47:02;8.50;;;2.80;;
65658;SDS011;60181;53.258;6.932;2023-03-11T09:55:11;8.50;;;2.80;;
65658;SDS011;60181;53.258;6.932;2023-03-11T09:59:08;7.20;;;2.80;;
65658;SDS011;60181;53.258;6.932;2023-03-11T10:03:15;7.20;;;2.80;;
65658;SDS011;60181;53.258;6.932;2023-03-11T10:07:16;6.30;;;2.80;;
65658;SDS011;60181;53.258;6.932;2023-03-11T10:19:40;8.30;;;3.00;;
65658;SDS011;60181;53.258;6.932;2023-03-11T10:27:44;7.50;;;2.90;;
65658;SDS011;60181;53.258;6.932;2023-03-11T10:31:45;7.50;;;2.90;;
65658;SDS011;60181;53.258;6.932;2023-03-11T10:35:45;7.50;;;2.90;;
65658;SDS011;60181;53.258;6.932;2023-03-11T10:39:48;6.00;;;2.80;;
65658;SDS011;60181;53.258;6.932;2023-03-11T10:44:02;6.00;;;2.80;;
65658;SDS011;60181;53.258;6.932;2023-03-11T10:47:56;8.40;;;2.90;;
65658;SDS011;60181;53.258;6.932;2023-03-11T10:52:00;8.40;;;2.90;;
65658;SDS011;60181;53.258;6.932;2023-03-11T10:56:04;8.40;;;2.90;;
65658;SDS011;60181;53.258;6.932;2023-03-11T11:00:09;8.00;;;3.00;;
65658;SDS011;60181;53.258;6.932;2023-03-11T11:04:22;8.00;;;3.00;;
65658;SDS011;60181;53.258;6.932;2023-03-11T11:08:16;7.50;;;3.00;;
65658;SDS011;60181;53.258;6.932;2023-03-11T11:12:20;7.50;;;3.00;;
65658;SDS011;60181;53.258;6.932;2023-03-11T11:16:24;7.50;;;3.00;;
65658;SDS011;60181;53.258;6.932;2023-03-11T11:20:28;12.20;;;3.30;;
65658;SDS011;60181;53.258;6.932;2023-03-11T11:24:32;12.20;;;3.30;;
65658;SDS011;60181;53.258;6.932;2023-03-11T11:28:36;8.60;;;3.80;;
65658;SDS011;60181;53.258;6.932;2023-03-11T11:32:40;8.60;;;3.80;;
65658;SDS011;60181;53.258;6.932;2023-03-11T11:36:44;11.30;;;4.00;;
65658;SDS011;60181;53.258;6.932;2023-03-11T11:40:48;11.30;;;4.00;;
65658;SDS011;60181;53.258;6.932;2023-03-11T11:44:52;11.30;;;4.00;;
65658;SDS011;60181;53.258;6.932;2023-03-11T11:48:59;11.20;;;4.50;;
65658;SDS011;60181;53.258;6.932;2023-03-11T11:57:10;9.30;;;4.10;;
65658;SDS011;60181;53.258;6.932;2023-03-11T12:05:15;9.30;;;4.10;;
65658;SDS011;60181;53.258;6.932;2023-03-11T12:09:21;13.90;;;4.30;;
65658;SDS011;60181;53.258;6.932;2023-03-11T12:13:25;13.90;;;4.30;;
65658;SDS011;60181;53.258;6.932;2023-03-11T12:17:24;12.70;;;4.40;;
65658;SDS011;60181;53.258;6.932;2023-03-11T12:21:50;12.70;;;4.40;;
65658;SDS011;60181;53.258;6.932;2023-03-11T12:25:36;12.70;;;4.40;;
65658;SDS011;60181;53.258;6.932;2023-03-11T12:29:37;10.00;;;4.10;;
65658;SDS011;60181;53.258;6.932;2023-03-11T12:33:43;10.00;;;4.10;;
65658;SDS011;60181;53.258;6.932;2023-03-11T12:37:44;10.20;;;4.00;;
65658;SDS011;60181;53.258;6.932;2023-03-11T12:41:47;10.20;;;4.00;;
65658;SDS011;60181;53.258;6.932;2023-03-11T12:45:52;10.20;;;4.00;;
65658;SDS011;60181;53.258;6.932;2023-03-11T12:58:25;13.00;;;4.90;;
65658;SDS011;60181;53.258;6.932;2023-03-11T13:06:35;13.00;;;4.90;;
65658;SDS011;60181;53.258;6.932;2023-03-11T13:10:18;10.60;;;4.60;;
65658;SDS011;60181;53.258;6.932;2023-03-11T13:14:26;10.60;;;4.60;;
65658;SDS011;60181;53.258;6.932;2023-03-11T13:18:24;13.50;;;4.90;;
65658;SDS011;60181;53.258;6.932;2023-03-11T13:22:45;13.50;;;4.90;;
65658;SDS011;60181;53.258;6.932;2023-03-11T13:26:34;13.50;;;4.90;;
65658;SDS011;60181;53.258;6.932;2023-03-11T13:30:37;11.20;;;4.80;;
65658;SDS011;60181;53.258;6.932;2023-03-11T13:42:48;12.00;;;4.60;;
65658;SDS011;60181;53.258;6.932;2023-03-11T13:46:53;10.30;;;4.40;;
65658;SDS011;60181;53.258;6.932;2023-03-11T13:50:58;10.30;;;4.40;;
65658;SDS011;60181;53.258;6.932;2023-03-11T14:03:10;10.40;;;4.30;;
65658;SDS011;60181;53.258;6.932;2023-03-11T14:11:16;9.10;;;4.40;;
65658;SDS011;60181;53.258;6.932;2023-03-11T14:15:23;9.10;;;4.40;;
65658;SDS011;60181;53.258;6.932;2023-03-11T14:19:23;8.70;;;4.20;;
65658;SDS011;60181;53.258;6.932;2023-03-11T14:23:28;8.70;;;4.20;;
65658;SDS011;60181;53.258;6.932;2023-03-11T14:27:31;10.00;;;4.10;;
65658;SDS011;60181;53.258;6.932;2023-03-11T14:31:39;10.00;;;4.10;;
65658;SDS011;60181;53.258;6.932;2023-03-11T14:35:39;10.00;;;4.10;;
65658;SDS011;60181;53.258;6.932;2023-03-11T14:39:43;9.40;;;4.10;;
65658;SDS011;60181;53.258;6.932;2023-03-11T14:43:48;9.40;;;4.10;;
65658;SDS011;60181;53.258;6.932;2023-03-11T14:51:58;9.80;;;4.20;;
65658;SDS011;60181;53.258;6.932;2023-03-11T14:56:03;9.80;;;4.20;;
65658;SDS011;60181;53.258;6.932;2023-03-11T15:00:04;11.80;;;4.30;;
65658;SDS011;60181;53.258;6.932;2023-03-11T15:04:13;11.80;;;4.30;;
65658;SDS011;60181;53.258;6.932;2023-03-11T15:08:11;11.70;;;4.10;;
65658;SDS011;60181;53.258;6.932;2023-03-11T15:16:23;11.70;;;4.10;;
65658;SDS011;60181;53.258;6.932;2023-03-11T15:20:25;13.00;;;4.30;;
65658;SDS011;60181;53.258;6.932;2023-03-11T15:24:28;13.00;;;4.30;;
65658;SDS011;60181;53.258;6.932;2023-03-11T15:28:32;8.30;;;3.60;;
65658;SDS011;60181;53.258;6.932;2023-03-11T15:32:39;8.30;;;3.60;;
65658;SDS011;60181;53.258;6.932;2023-03-11T15:36:42;13.20;;;3.90;;
65658;SDS011;60181;53.258;6.932;2023-03-11T15:40:58;13.20;;;3.90;;
65658;SDS011;60181;53.258;6.932;2023-03-11T15:44:58;13.20;;;3.90;;
65658;SDS011;60181;53.258;6.932;2023-03-11T15:48:51;11.50;;;3.70;;
65658;SDS011;60181;53.258;6.932;2023-03-11T15:52:55;11.50;;;3.70;;
65658;SDS011;60181;53.258;6.932;2023-03-11T15:56:59;9.30;;;3.80;;
65658;SDS011;60181;53.258;6.932;2023-03-11T16:01:03;9.30;;;3.80;;
65658;SDS011;60181;53.258;6.932;2023-03-11T16:05:17;9.30;;;3.80;;
65658;SDS011;60181;53.258;6.932;2023-03-11T16:09:11;10.30;;;3.70;;
65658;SDS011;60181;53.258;6.932;2023-03-11T16:13:15;10.30;;;3.70;;
65658;SDS011;60181;53.258;6.932;2023-03-11T16:17:19;10.40;;;3.80;;
65658;SDS011;60181;53.258;6.932;2023-03-11T16:21:25;10.40;;;3.80;;
65658;SDS011;60181;53.258;6.932;2023-03-11T16:25:31;10.40;;;3.80;;
65658;SDS011;60181;53.258;6.932;2023-03-11T16:29:31;9.50;;;3.50;;
65658;SDS011;60181;53.258;6.932;2023-03-11T16:33:35;9.50;;;3.50;;
65658;SDS011;60181;53.258;6.932;2023-03-11T16:37:39;10.40;;;3.60;;
65658;SDS011;60181;53.258;6.932;2023-03-11T16:41:43;10.40;;;3.60;;
65658;SDS011;60181;53.258;6.932;2023-03-11T16:45:47;10.40;;;3.60;;
65658;SDS011;60181;53.258;6.932;2023-03-11T16:49:51;8.80;;;3.60;;
65658;SDS011;60181;53.258;6.932;2023-03-11T16:53:55;8.80;;;3.60;;
65658;SDS011;60181;53.258;6.932;2023-03-11T16:57:59;8.90;;;3.30;;
65658;SDS011;60181;53.258;6.932;2023-03-11T17:02:03;8.90;;;3.30;;
65658;SDS011;60181;53.258;6.932;2023-03-11T17:06:07;8.90;;;3.30;;
65658;SDS011;60181;53.258;6.932;2023-03-11T17:10:11;7.30;;;3.10;;
65658;SDS011;60181;53.258;6.932;2023-03-11T17:14:15;7.30;;;3.10;;
65658;SDS011;60181;53.258;6.932;2023-03-11T17:18:19;8.40;;;3.30;;
65658;SDS011;60181;53.258;6.932;2023-03-11T17:22:23;8.40;;;3.30;;
65658;SDS011;60181;53.258;6.932;2023-03-11T17:26:27;8.40;;;3.30;;
65658;SDS011;60181;53.258;6.932;2023-03-11T17:30:31;9.30;;;3.50;;
65658;SDS011;60181;53.258;6.932;2023-03-11T17:34:35;9.30;;;3.50;;
65658;SDS011;60181;53.258;6.932;2023-03-11T17:38:39;8.20;;;3.20;;
65658;SDS011;60181;53.258;6.932;2023-03-11T17:42:43;8.20;;;3.20;;
65658;SDS011;60181;53.258;6.932;2023-03-11T17:46:47;7.20;;;3.30;;
65658;SDS011;60181;53.258;6.932;2023-03-11T17:50:51;7.20;;;3.30;;
65658;SDS011;60181;53.258;6.932;2023-03-11T17:54:55;7.20;;;3.30;;
65658;SDS011;60181;53.258;6.932;2023-03-11T17:58:59;7.60;;;3.30;;
65658;SDS011;60181;53.258;6.932;2023-03-11T18:03:03;7.60;;;3.30;;
65658;SDS011;60181;53.258;6.932;2023-03-11T18:07:07;7.80;;;3.10;;
65658;SDS011;60181;53.258;6.932;2023-03-11T18:11:12;7.80;;;3.10;;
65658;SDS011;60181;53.258;6.932;2023-03-11T18:15:15;7.80;;;3.10;;
65658;SDS011;60181;53.258;6.932;2023-03-11T18:19:19;7.20;;;3.00;;
65658;SDS011;60181;53.258;6.932;2023-03-11T18:23:23;7.20;;;3.00;;
65658;SDS011;60181;53.258;6.932;2023-03-11T18:27:27;6.90;;;3.00;;
65658;SDS011;60181;53.258;6.932;2023-03-11T18:31:31;6.90;;;3.00;;
65658;SDS011;60181;53.258;6.932;2023-03-11T18:35:35;6.90;;;3.00;;
65658;SDS011;60181;53.258;6.932;2023-03-11T18:39:39;8.20;;;3.10;;
65658;SDS011;60181;53.258;6.932;2023-03-11T18:43:43;8.20;;;3.10;;
65658;SDS011;60181;53.258;6.932;2023-03-11T18:47:47;7.80;;;3.20;;
65658;SDS011;60181;53.258;6.932;2023-03-11T18:51:51;7.80;;;3.20;;
65658;SDS011;60181;53.258;6.932;2023-03-11T18:56:02;7.80;;;3.20;;
65658;SDS011;60181;53.258;6.932;2023-03-11T18:59:59;7.90;;;3.00;;
65658;SDS011;60181;53.258;6.932;2023-03-11T19:04:03;7.90;;;3.00;;
65658;SDS011;60181;53.258;6.932;2023-03-11T19:08:07;5.90;;;2.80;;
65658;SDS011;60181;53.258;6.932;2023-03-11T19:12:11;5.90;;;2.80;;
65658;SDS011;60181;53.258;6.932;2023-03-11T19:16:16;5.90;;;2.80;;
65658;SDS011;60181;53.258;6.932;2023-03-11T19:20:19;8.00;;;3.10;;
65658;SDS011;60181;53.258;6.932;2023-03-11T19:24:23;8.00;;;3.10;;
65658;SDS011;60181;53.258;6.932;2023-03-11T19:28:27;9.40;;;3.10;;
65658;SDS011;60181;53.258;6.932;2023-03-11T19:32:31;9.40;;;3.10;;
65658;SDS011;60181;53.258;6.932;2023-03-11T19:36:35;13.10;;;3.60;;
65658;SDS011;60181;53.258;6.932;2023-03-11T19:40:39;13.10;;;3.60;;
65658;SDS011;60181;53.258;6.932;2023-03-11T19:44:43;13.10;;;3.60;;
65658;SDS011;60181;53.258;6.932;2023-03-11T19:48:47;10.20;;;3.40;;
65658;SDS011;60181;53.258;6.932;2023-03-11T19:52:51;10.20;;;3.40;;
65658;SDS011;60181;53.258;6.932;2023-03-11T19:56:55;15.10;;;3.10;;
65658;SDS011;60181;53.258;6.932;2023-03-11T20:00:59;15.10;;;3.10;;
65658;SDS011;60181;53.258;6.932;2023-03-11T20:05:03;15.10;;;3.10;;
65658;SDS011;60181;53.258;6.932;2023-03-11T20:09:07;10.10;;;3.00;;
65658;SDS011;60181;53.258;6.932;2023-03-11T20:13:11;10.10;;;3.00;;
65658;SDS011;60181;53.258;6.932;2023-03-11T20:17:15;9.40;;;3.20;;
65658;SDS011;60181;53.258;6.932;2023-03-11T20:21:19;9.40;;;3.20;;
65658;SDS011;60181;53.258;6.932;2023-03-11T20:25:23;9.40;;;3.20;;
65658;SDS011;60181;53.258;6.932;2023-03-11T20:29:27;6.30;;;2.90;;
65658;SDS011;60181;53.258;6.932;2023-03-11T20:33:31;6.30;;;2.90;;
65658;SDS011;60181;53.258;6.932;2023-03-11T20:37:35;7.60;;;3.10;;
65658;SDS011;60181;53.258;6.932;2023-03-11T20:41:39;7.60;;;3.10;;
65658;SDS011;60181;53.258;6.932;2023-03-11T20:45:43;7.60;;;3.10;;
65658;SDS011;60181;53.258;6.932;2023-03-11T20:53:51;8.00;;;3.00;;
65658;SDS011;60181;53.258;6.932;2023-03-11T20:57:55;5.80;;;2.80;;
65658;SDS011;60181;53.258;6.932;2023-03-11T21:01:59;5.80;;;2.80;;
65658;SDS011;60181;53.258;6.932;2023-03-11T21:06:03;5.80;;;2.80;;
65658;SDS011;60181;53.258;6.932;2023-03-11T21:10:08;6.60;;;2.90;;
65658;SDS011;60181;53.258;6.932;2023-03-11T21:14:21;6.60;;;2.90;;
65658;SDS011;60181;53.258;6.932;2023-03-11T21:18:15;14.70;;;4.40;;
65658;SDS011;60181;53.258;6.932;2023-03-11T21:22:19;14.70;;;4.40;;
65658;SDS011;60181;53.258;6.932;2023-03-11T21:26:23;14.70;;;4.40;;
65658;SDS011;60181;53.258;6.932;2023-03-11T21:30:27;19.10;;;3.40;;
65658;SDS011;60181;53.258;6.932;2023-03-11T21:34:31;19.10;;;3.40;;
65658;SDS011;60181;53.258;6.932;2023-03-11T21:38:35;13.10;;;3.20;;
65658;SDS011;60181;53.258;6.932;2023-03-11T21:42:39;13.10;;;3.20;;
65658;SDS011;60181;53.258;6.932;2023-03-11T21:46:43;9.80;;;3.10;;
65658;SDS011;60181;53.258;6.932;2023-03-11T21:50:47;9.80;;;3.10;;
65658;SDS011;60181;53.258;6.932;2023-03-11T21:54:51;9.80;;;3.10;;
65658;SDS011;60181;53.258;6.932;2023-03-11T21:58:55;6.50;;;2.90;;
65658;SDS011;60181;53.258;6.932;2023-03-11T22:02:59;6.50;;;2.90;;
65658;SDS011;60181;53.258;6.932;2023-03-11T22:07:03;7.50;;;3.00;;
65658;SDS011;60181;53.258;6.932;2023-03-11T22:11:07;7.50;;;3.00;;
65658;SDS011;60181;53.258;6.932;2023-03-11T22:15:11;7.50;;;3.00;;
65658;SDS011;60181;53.258;6.932;2023-03-11T22:19:15;9.90;;;3.10;;
65658;SDS011;60181;53.258;6.932;2023-03-11T22:23:19;9.90;;;3.10;;
65658;SDS011;60181;53.258;6.932;2023-03-11T22:27:23;8.60;;;2.70;;
65658;SDS011;60181;53.258;6.932;2023-03-11T22:31:27;8.60;;;2.70;;
65658;SDS011;60181;53.258;6.932;2023-03-11T22:35:31;8.60;;;2.70;;
65658;SDS011;60181;53.258;6.932;2023-03-11T22:39:35;12.10;;;4.10;;
65658;SDS011;60181;53.258;6.932;2023-03-11T22:43:39;12.10;;;4.10;;
65658;SDS011;60181;53.258;6.932;2023-03-11T22:47:43;13.20;;;3.60;;
65658;SDS011;60181;53.258;6.932;2023-03-11T22:51:47;13.20;;;3.60;;
65658;SDS011;60181;53.258;6.932;2023-03-11T22:55:51;13.20;;;3.60;;
65658;SDS011;60181;53.258;6.932;2023-03-11T22:59:55;8.00;;;3.30;;
65658;SDS011;60181;53.258;6.932;2023-03-11T23:03:59;8.00;;;3.30;;
65658;SDS011;60181;53.258;6.932;2023-03-11T23:08:03;11.10;;;3.40;;
65658;SDS011;60181;53.258;6.932;2023-03-11T23:12:07;11.10;;;3.40;;
65658;SDS011;60181;53.258;6.932;2023-03-11T23:16:11;11.10;;;3.40;;
65658;SDS011;60181;53.258;6.932;2023-03-11T23:20:15;8.60;;;3.60;;
65658;SDS011;60181;53.258;6.932;2023-03-11T23:24:18;8.60;;;3.60;;
65658;SDS011;60181;53.258;6.932;2023-03-11T23:28:22;6.70;;;3.60;;
65658;SDS011;60181;53.258;6.932;2023-03-11T23:32:26;6.70;;;3.60;;
65658;SDS011;60181;53.258;6.932;2023-03-11T23:36:30;6.70;;;3.60;;
65658;SDS011;60181;53.258;6.932;2023-03-11T23:40:34;8.30;;;4.10;;
65658;SDS011;60181;53.258;6.932;2023-03-11T23:44:38;8.30;;;4.10;;
65658;SDS011;60181;53.258;6.932;2023-03-11T23:48:42;8.30;;;3.70;;
65658;SDS011;60181;53.258;6.932;2023-03-11T23:52:46;8.30;;;3.70;;
65658;SDS011;60181;53.258;6.932;2023-03-11T23:56:50;12.50;;;3.80;;
